createdAt,value
2023-04-21T00:01:00.629Z,4.60
2023-04-21T00:03:28.686Z,5.75
2023-04-21T00:05:58.860Z,5.28
2023-04-21T00:08:28.524Z,4.32
2023-04-21T00:10:55.256Z,5.68
2023-04-21T00:13:23.901Z,4.93
2023-04-21T00:15:51.328Z,4.53
2023-04-21T00:18:18.130Z,5.22
2023-04-21T00:20:45.172Z,6.60
2023-04-21T00:23:12.143Z,5.28
2023-04-21T00:25:38.743Z,6.10
2023-04-21T00:28:05.582Z,6.65
2023-04-21T00:30:32.214Z,3.95
2023-04-21T00:32:58.912Z,3.95
2023-04-21T00:35:26.130Z,3.53
2023-04-21T00:37:53.069Z,4.85
2023-04-21T00:40:20.539Z,4.22
2023-04-21T00:42:47.374Z,5.68
2023-04-21T00:45:17.610Z,4.10
2023-04-21T00:47:44.602Z,3.83
2023-04-21T00:50:12.257Z,3.90
2023-04-21T00:52:44.017Z,4.18
2023-04-21T00:55:11.160Z,3.78
2023-04-21T00:57:40.633Z,4.80
2023-04-21T01:00:09.025Z,4.07
2023-04-21T01:02:37.561Z,4.85
2023-04-21T01:05:09.301Z,4.97
2023-04-21T01:07:36.394Z,4.72
2023-04-21T01:10:04.180Z,5.22
2023-04-21T01:12:31.033Z,5.82
2023-04-21T01:14:57.662Z,4.47
2023-04-21T01:17:24.467Z,6.30
2023-04-21T01:19:53.575Z,4.82
2023-04-21T01:22:20.178Z,4.05
2023-04-21T01:24:48.832Z,4.45
2023-04-21T01:27:20.139Z,4.82
2023-04-21T01:29:51.991Z,4.15
2023-04-21T01:32:25.271Z,4.78
2023-04-21T01:34:52.238Z,6.15
2023-04-21T01:37:25.873Z,6.60
2023-04-21T01:39:54.888Z,8.65
2023-04-21T01:42:24.746Z,4.35
2023-04-21T01:44:53.820Z,4.10
2023-04-21T01:47:21.461Z,6.97
2023-04-21T01:49:48.180Z,4.22
2023-04-21T01:52:14.858Z,7.40
2023-04-21T01:54:41.616Z,7.95
2023-04-21T01:57:08.528Z,6.65
2023-04-21T01:59:35.604Z,4.53
2023-04-21T02:02:02.273Z,6.93
2023-04-21T02:04:29.243Z,8.07
2023-04-21T02:06:56.040Z,8.15
2023-04-21T02:09:22.872Z,7.30
2023-04-21T02:11:49.518Z,7.25
2023-04-21T02:14:16.300Z,8.32
2023-04-21T02:16:43.178Z,8.82
2023-04-21T02:19:09.909Z,6.53
2023-04-21T02:21:36.536Z,8.88
2023-04-21T02:24:05.252Z,6.90
2023-04-21T02:26:33.194Z,9.02
2023-04-21T02:28:59.925Z,7.10
2023-04-21T02:31:26.949Z,8.55
2023-04-21T02:33:54.755Z,7.10
2023-04-21T02:36:21.796Z,5.50
2023-04-21T02:38:48.496Z,7.90
2023-04-21T02:41:15.182Z,6.32
2023-04-21T02:43:41.802Z,7.53
2023-04-21T02:46:09.768Z,7.47
2023-04-21T02:48:36.968Z,8.45
2023-04-21T02:51:04.696Z,7.03
2023-04-21T02:53:31.719Z,8.40
2023-04-21T02:55:58.358Z,8.85
2023-04-21T02:58:25.032Z,7.25
2023-04-21T03:00:51.845Z,8.85
2023-04-21T03:03:19.024Z,8.43
2023-04-21T03:05:46.131Z,9.05
2023-04-21T03:08:12.997Z,9.82
2023-04-21T03:10:39.973Z,9.40
2023-04-21T03:13:06.612Z,10.05
2023-04-21T03:15:33.247Z,7.90
2023-04-21T03:17:59.893Z,6.72
2023-04-21T03:20:26.584Z,7.45
2023-04-21T03:22:56.168Z,8.63
2023-04-21T03:25:22.929Z,9.60
2023-04-21T03:27:49.841Z,8.63
2023-04-21T03:30:16.632Z,8.55
2023-04-21T03:32:43.270Z,8.75
2023-04-21T03:35:09.973Z,9.32
2023-04-21T03:37:36.731Z,8.82
2023-04-21T03:40:09.090Z,6.53
2023-04-21T03:45:03.913Z,10.68
2023-04-21T03:47:30.768Z,10.07
2023-04-21T03:49:57.524Z,11.43
2023-04-21T03:52:24.791Z,11.32
2023-04-21T03:54:51.541Z,10.80
2023-04-21T03:57:18.191Z,8.90
2023-04-21T03:59:44.982Z,10.00
2023-04-21T04:02:11.727Z,10.02
2023-04-21T04:04:38.804Z,9.07
2023-04-21T04:07:07.519Z,12.23
2023-04-21T04:09:34.337Z,10.18
2023-04-21T04:12:02.965Z,8.65
2023-04-21T04:14:30.319Z,11.30
2023-04-21T04:16:58.436Z,10.35
2023-04-21T04:19:30.562Z,12.15
2023-04-21T04:21:59.689Z,11.23
2023-04-21T04:24:26.821Z,11.95
2023-04-21T04:26:54.961Z,10.55
2023-04-21T04:29:22.736Z,11.70
2023-04-21T04:31:52.834Z,11.15
2023-04-21T04:34:19.967Z,9.10
2023-04-21T04:36:48.124Z,10.80
2023-04-21T04:39:16.736Z,12.43
2023-04-21T04:41:43.729Z,15.05
2023-04-21T04:44:11.360Z,12.40
2023-04-21T04:46:39.323Z,14.60
2023-04-21T04:49:06.008Z,13.63
2023-04-21T04:51:32.829Z,12.60
2023-04-21T04:53:59.590Z,14.20
2023-04-21T04:56:26.257Z,12.95
2023-04-21T04:58:52.984Z,11.40
2023-04-21T05:01:19.602Z,12.88
2023-04-21T05:03:46.938Z,13.48
2023-04-21T05:06:14.395Z,11.27
2023-04-21T05:08:44.009Z,13.02
2023-04-21T05:11:10.712Z,12.77
2023-04-21T05:13:39.809Z,11.30
2023-04-21T05:16:07.605Z,13.40
2023-04-21T05:18:34.409Z,11.45
2023-04-21T05:21:01.107Z,15.68
2023-04-21T05:23:27.952Z,11.93
2023-04-21T05:25:54.553Z,13.48
2023-04-21T05:28:21.425Z,13.15
2023-04-21T05:30:48.029Z,15.48
2023-04-21T05:33:14.687Z,15.25
2023-04-21T05:35:41.521Z,10.85
2023-04-21T05:38:08.246Z,15.07
2023-04-21T05:40:34.787Z,13.40
2023-04-21T05:43:01.410Z,14.98
2023-04-21T05:45:27.932Z,15.18
2023-04-21T05:47:54.600Z,14.32
2023-04-21T05:50:21.337Z,15.30
2023-04-21T05:52:48.025Z,16.10
2023-04-21T05:55:14.641Z,19.58
2023-04-21T05:57:41.339Z,16.38
2023-04-21T06:00:08.713Z,16.77
2023-04-21T06:02:35.492Z,16.45
2023-04-21T06:05:02.502Z,17.45
2023-04-21T06:07:29.516Z,20.20
2023-04-21T06:09:57.919Z,20.10
2023-04-21T06:12:24.833Z,16.45
2023-04-21T06:14:51.674Z,17.48
2023-04-21T06:17:18.647Z,15.32
2023-04-21T06:19:45.397Z,17.75
2023-04-21T06:22:12.058Z,15.85
2023-04-21T06:24:38.797Z,16.50
2023-04-21T06:27:11.261Z,18.13
2023-04-21T06:32:06.196Z,19.05
2023-04-21T06:34:32.911Z,19.08
2023-04-21T06:36:59.633Z,19.95
2023-04-21T06:39:26.485Z,18.33
2023-04-21T06:41:53.259Z,17.85
2023-04-21T06:44:20.202Z,16.98
2023-04-21T06:46:47.525Z,18.65
2023-04-21T06:49:14.158Z,12.98
2023-04-21T06:51:40.964Z,21.02
2023-04-21T06:54:07.650Z,20.45
2023-04-21T06:56:34.527Z,23.42
2023-04-21T06:59:01.126Z,18.15
2023-04-21T07:01:27.829Z,15.15
2023-04-21T07:03:54.854Z,19.42
2023-04-21T07:06:21.500Z,18.33
2023-04-21T07:08:48.117Z,17.02
2023-04-21T07:11:14.704Z,20.90
2023-04-21T07:13:41.336Z,20.05
2023-04-21T07:16:08.116Z,15.02
2023-04-21T07:18:34.852Z,18.27
2023-04-21T07:21:01.473Z,18.65
2023-04-21T07:23:28.285Z,17.00
2023-04-21T07:25:54.966Z,19.75
2023-04-21T07:28:21.714Z,17.65
2023-04-21T07:30:48.422Z,22.38
2023-04-21T07:33:15.503Z,16.90
2023-04-21T07:35:42.335Z,18.50
2023-04-21T07:38:09.402Z,19.48
2023-04-21T07:40:36.028Z,15.10
2023-04-21T07:43:02.718Z,14.43
2023-04-21T07:45:29.391Z,18.90
2023-04-21T07:47:56.072Z,13.35
2023-04-21T07:50:22.776Z,20.30
2023-04-21T07:52:49.466Z,18.23
2023-04-21T07:55:16.216Z,19.80
2023-04-21T07:57:42.852Z,16.23
2023-04-21T08:00:10.467Z,17.88
2023-04-21T08:02:37.207Z,17.55
2023-04-21T08:05:04.072Z,10.05
2023-04-21T08:07:31.875Z,18.20
2023-04-21T08:09:58.869Z,15.20
2023-04-21T08:12:25.930Z,12.30
2023-04-21T08:14:52.588Z,19.42
2023-04-21T08:17:19.228Z,14.95
2023-04-21T08:19:45.882Z,10.10
2023-04-21T08:22:12.634Z,14.60
2023-04-21T08:24:39.766Z,14.30
2023-04-21T08:27:06.443Z,11.00
2023-04-21T08:29:33.059Z,18.65
2023-04-21T08:31:59.843Z,14.10
2023-04-21T08:34:27.914Z,15.05
2023-04-21T08:36:54.757Z,14.70
2023-04-21T08:39:21.588Z,12.95
2023-04-21T08:41:48.889Z,10.00
2023-04-21T08:44:15.941Z,13.88
2023-04-21T08:46:44.785Z,12.27
2023-04-21T08:49:13.033Z,14.85
2023-04-21T08:51:40.336Z,11.57
2023-04-21T08:54:07.007Z,16.60
2023-04-21T08:56:33.683Z,13.65
2023-04-21T08:59:00.367Z,15.27
2023-04-21T09:01:27.167Z,12.75
2023-04-21T09:03:54.130Z,13.63
2023-04-21T09:06:21.421Z,12.57
2023-04-21T09:08:58.051Z,14.98
2023-04-21T09:11:25.207Z,10.35
2023-04-21T09:13:51.882Z,12.10
2023-04-21T09:16:21.648Z,10.48
2023-04-21T09:18:50.168Z,13.48
2023-04-21T09:21:18.864Z,12.38
2023-04-21T09:23:55.551Z,12.23
2023-04-21T09:26:25.246Z,12.07
2023-04-21T09:28:53.096Z,12.15
2023-04-21T09:31:23.062Z,11.60
2023-04-21T09:36:28.041Z,12.02
2023-04-21T09:39:05.577Z,13.82
2023-04-21T09:41:44.522Z,11.27
2023-04-21T09:44:11.154Z,10.30
2023-04-21T09:46:38.172Z,10.63
2023-04-21T09:49:06.170Z,12.38
2023-04-21T09:51:56.301Z,12.88
2023-04-21T09:54:29.551Z,14.77
2023-04-21T09:56:59.542Z,11.10
2023-04-21T09:59:29.802Z,12.27
2023-04-21T10:01:58.879Z,10.10
2023-04-21T10:04:26.399Z,10.52
2023-04-21T10:06:53.557Z,11.95
2023-04-21T10:09:23.860Z,10.77
2023-04-21T10:11:51.665Z,8.93
2023-04-21T10:14:18.820Z,9.05
2023-04-21T10:16:56.923Z,11.45
2023-04-21T10:19:25.800Z,11.38
2023-04-21T10:21:55.348Z,10.40
2023-04-21T10:24:22.251Z,12.25
2023-04-21T10:26:52.630Z,9.05
2023-04-21T10:29:43.666Z,8.65
2023-04-21T10:32:33.159Z,9.18
2023-04-21T10:35:00.150Z,10.23
2023-04-21T10:37:31.114Z,9.73
2023-04-21T10:39:57.938Z,8.68
2023-04-21T10:42:27.324Z,9.93
2023-04-21T10:45:02.588Z,10.25
2023-04-21T10:47:37.054Z,10.65
2023-04-21T10:50:23.536Z,7.55
2023-04-21T10:53:00.037Z,7.82
2023-04-21T10:55:28.585Z,9.38
2023-04-21T10:57:56.089Z,10.18
2023-04-21T11:00:24.498Z,10.73
2023-04-21T11:03:03.067Z,9.93
2023-04-21T11:05:32.251Z,7.35
2023-04-21T11:08:09.000Z,7.97
2023-04-21T11:11:02.175Z,8.25
2023-04-21T11:13:35.029Z,8.65
2023-04-21T11:16:07.022Z,8.65
2023-04-21T11:18:45.235Z,8.00
2023-04-21T11:21:24.594Z,8.73
2023-04-21T11:23:56.073Z,8.52
2023-04-21T11:26:33.755Z,7.70
2023-04-21T11:29:02.286Z,6.70
2023-04-21T11:31:30.407Z,8.45
2023-04-21T11:33:58.427Z,6.65
2023-04-21T11:36:25.143Z,5.55
2023-04-21T11:38:51.751Z,6.72
2023-04-21T11:41:22.979Z,8.70
2023-04-21T11:43:50.808Z,6.50
2023-04-21T11:46:24.934Z,7.32
2023-04-21T11:49:13.507Z,8.25
2023-04-21T11:51:42.256Z,7.00
2023-04-21T11:54:13.888Z,9.70
2023-04-21T11:56:42.472Z,5.97
2023-04-21T11:59:11.021Z,7.75
2023-04-21T12:01:48.783Z,6.88
2023-04-21T12:04:19.711Z,6.80
2023-04-21T12:06:48.032Z,7.32
2023-04-21T12:09:19.332Z,6.22
2023-04-21T12:11:51.389Z,5.28
2023-04-21T12:14:21.036Z,9.05
2023-04-21T12:16:53.396Z,7.93
2023-04-21T12:19:39.213Z,6.13
2023-04-21T12:22:10.751Z,6.13
2023-04-21T12:24:38.239Z,8.02
2023-04-21T12:27:05.837Z,6.28
2023-04-21T12:29:35.730Z,5.53
2023-04-21T12:32:02.568Z,8.48
2023-04-21T12:34:29.373Z,7.78
2023-04-21T12:36:56.086Z,8.55
2023-04-21T12:39:22.785Z,8.25
2023-04-21T12:41:49.401Z,5.15
2023-04-21T12:44:16.057Z,9.02
2023-04-21T12:46:42.769Z,7.25
2023-04-21T12:49:10.145Z,5.90
2023-04-21T12:51:36.895Z,7.10
2023-04-21T12:54:03.624Z,8.32
2023-04-21T12:56:30.640Z,10.23
2023-04-21T12:58:58.248Z,9.68
2023-04-21T13:01:25.120Z,7.20
2023-04-21T13:03:52.107Z,11.90
2023-04-21T13:06:19.108Z,9.48
2023-04-21T13:08:45.737Z,8.25
2023-04-21T13:11:12.356Z,9.57
2023-04-21T13:13:39.086Z,7.95
2023-04-21T13:16:06.090Z,13.20
2023-04-21T13:18:34.967Z,9.65
2023-04-21T13:21:02.108Z,9.35
2023-04-21T13:23:29.187Z,7.57
2023-04-21T13:25:56.010Z,4.65
2023-04-21T13:28:23.524Z,9.50
2023-04-21T13:30:52.453Z,7.70
2023-04-21T13:33:19.936Z,7.80
2023-04-21T13:35:46.724Z,11.70
2023-04-21T13:38:13.409Z,11.93
2023-04-21T13:40:39.989Z,10.90
2023-04-21T13:43:06.780Z,8.18
2023-04-21T13:45:33.480Z,10.15
2023-04-21T13:48:00.151Z,10.25
2023-04-21T13:50:26.792Z,9.18
2023-04-21T13:52:53.446Z,8.02
2023-04-21T13:55:21.008Z,11.25
2023-04-21T13:57:47.579Z,10.15
2023-04-21T14:00:18.036Z,11.38
2023-04-21T14:02:45.005Z,11.13
2023-04-21T14:05:12.052Z,13.60
2023-04-21T14:07:39.098Z,10.65
2023-04-21T14:10:08.859Z,10.45
2023-04-21T14:12:35.602Z,14.75
2023-04-21T14:15:02.310Z,13.63
2023-04-21T14:17:28.989Z,13.65
2023-04-21T14:19:55.735Z,11.30
2023-04-21T14:22:22.460Z,14.48
2023-04-21T14:24:49.172Z,13.10
2023-04-21T14:27:16.252Z,16.38
2023-04-21T14:29:42.898Z,15.30
2023-04-21T14:32:09.643Z,15.85
2023-04-21T14:34:36.304Z,12.30
2023-04-21T14:37:03.286Z,14.68
2023-04-21T14:39:29.896Z,10.40
2023-04-21T14:41:56.579Z,14.32
2023-04-21T14:44:23.193Z,10.10
2023-04-21T14:47:00.987Z,16.00
2023-04-21T14:49:33.131Z,12.32
2023-04-21T14:52:00.074Z,10.68
2023-04-21T14:54:26.706Z,11.90
2023-04-21T14:57:00.539Z,14.60
2023-04-21T14:59:33.835Z,11.65
2023-04-21T15:02:01.013Z,10.57
2023-04-21T15:04:28.152Z,13.32
2023-04-21T15:06:54.900Z,16.05
2023-04-21T15:09:21.667Z,14.27
2023-04-21T15:11:48.449Z,15.10
2023-04-21T15:14:15.049Z,13.80
2023-04-21T15:16:41.712Z,13.93
2023-04-21T15:19:08.365Z,17.08
2023-04-21T15:21:35.061Z,10.52
2023-04-21T15:24:01.667Z,14.70
2023-04-21T15:26:30.326Z,14.05
2023-04-21T15:28:57.792Z,11.43
2023-04-21T15:31:24.590Z,14.50
2023-04-21T15:33:51.341Z,11.18
2023-04-21T15:36:17.932Z,12.88
2023-04-21T15:38:45.142Z,10.85
2023-04-21T15:41:11.906Z,12.68
2023-04-21T15:43:38.785Z,9.40
2023-04-21T15:46:13.087Z,14.02
2023-04-21T15:48:41.489Z,16.65
2023-04-21T15:51:09.165Z,13.50
2023-04-21T15:53:37.366Z,14.98
2023-04-21T15:56:04.902Z,15.50
2023-04-21T15:58:31.598Z,16.67
2023-04-21T16:00:58.324Z,16.42
2023-04-21T16:03:26.408Z,14.05
2023-04-21T16:05:53.610Z,17.38
2023-04-21T16:08:20.814Z,16.40
2023-04-21T16:10:47.638Z,14.05
2023-04-21T16:13:14.318Z,12.32
2023-04-21T16:15:41.334Z,19.10
2023-04-21T16:18:08.606Z,9.95
2023-04-21T16:20:36.859Z,5.88
2023-04-21T16:23:04.912Z,4.93
2023-04-21T16:25:34.362Z,4.53
2023-04-21T16:28:01.099Z,4.03
2023-04-21T16:30:27.834Z,4.57
2023-04-21T16:32:54.505Z,3.88
2023-04-21T16:35:21.354Z,3.65
2023-04-21T16:37:48.097Z,4.40
2023-04-21T16:40:14.761Z,3.50
2023-04-21T16:42:41.508Z,4.80
2023-04-21T16:45:08.449Z,2.35
2023-04-21T16:47:41.355Z,3.03
2023-04-21T16:50:09.267Z,2.83
2023-04-21T16:52:35.963Z,1.92
2023-04-21T16:55:02.527Z,2.42
2023-04-21T16:57:30.430Z,2.42
2023-04-21T16:59:59.147Z,2.42
2023-04-21T17:02:26.131Z,2.10
2023-04-21T17:04:52.863Z,3.05
2023-04-21T17:07:19.519Z,3.10
2023-04-21T17:09:46.123Z,2.88
2023-04-21T17:12:12.797Z,3.10
2023-04-21T17:14:40.319Z,2.22
2023-04-21T17:17:07.239Z,2.35
2023-04-21T17:19:34.048Z,1.52
2023-04-21T17:22:00.953Z,2.20
2023-04-21T17:24:33.101Z,2.22
2023-04-21T17:27:04.884Z,1.77
2023-04-21T17:29:31.953Z,2.38
2023-04-21T17:31:58.733Z,2.65
2023-04-21T17:34:25.344Z,1.85
2023-04-21T17:36:51.998Z,2.03
2023-04-21T17:39:18.657Z,1.85
2023-04-21T17:41:47.245Z,2.38
2023-04-21T17:44:13.922Z,2.05
2023-04-21T17:46:41.719Z,2.13
2023-04-21T17:49:08.430Z,1.63
2023-04-21T17:51:36.111Z,2.00
2023-04-21T17:54:03.286Z,3.63
2023-04-21T17:56:29.906Z,1.98
2023-04-21T17:58:56.653Z,1.90
2023-04-21T18:01:23.349Z,1.60
2023-04-21T18:03:50.223Z,2.28
2023-04-21T18:06:17.558Z,1.55
2023-04-21T18:08:44.264Z,2.08
2023-04-21T18:11:12.186Z,2.10
2023-04-21T18:13:38.820Z,1.85
2023-04-21T18:16:05.616Z,1.73
2023-04-21T18:18:32.322Z,2.00
2023-04-21T18:20:59.792Z,2.70
2023-04-21T18:23:26.433Z,2.40
2023-04-21T18:25:52.983Z,2.38
2023-04-21T18:28:19.630Z,1.98
2023-04-21T18:30:46.862Z,1.95
2023-04-21T18:33:13.524Z,2.72
2023-04-21T18:35:41.656Z,3.30
2023-04-21T18:38:10.464Z,1.92
2023-04-21T18:40:37.695Z,3.90
2023-04-21T18:43:05.147Z,2.25
2023-04-21T18:45:32.063Z,2.60
2023-04-21T18:47:58.826Z,2.58
2023-04-21T18:50:27.613Z,2.63
2023-04-21T18:52:55.109Z,4.05
2023-04-21T18:55:22.025Z,2.20
2023-04-21T18:57:48.869Z,2.38
2023-04-21T19:00:15.909Z,2.58
2023-04-21T19:02:43.321Z,2.83
2023-04-21T19:05:10.027Z,2.60
2023-04-21T19:07:36.746Z,3.75
2023-04-21T19:10:03.392Z,2.40
2023-04-21T19:12:30.064Z,2.88
2023-04-21T19:14:56.769Z,1.88
2023-04-21T19:17:23.502Z,2.40
2023-04-21T19:19:51.120Z,3.38
2023-04-21T19:22:19.890Z,3.08
2023-04-21T19:24:47.463Z,3.20
2023-04-21T19:27:14.125Z,5.05
2023-04-21T19:29:41.519Z,3.83
2023-04-21T19:32:08.323Z,4.35
2023-04-21T19:34:35.060Z,2.40
2023-04-21T19:37:01.795Z,3.05
2023-04-21T19:39:28.728Z,1.95
2023-04-21T19:41:57.429Z,2.15
2023-04-21T19:44:24.292Z,2.03
2023-04-21T19:46:51.266Z,2.53
2023-04-21T19:49:18.015Z,1.95
2023-04-21T19:51:44.660Z,3.03
2023-04-21T19:54:13.178Z,2.75
2023-04-21T19:56:40.783Z,2.45
2023-04-21T19:59:07.687Z,2.05
2023-04-21T20:01:34.746Z,2.08
2023-04-21T20:04:02.152Z,2.22
2023-04-21T20:06:29.184Z,2.13
2023-04-21T20:08:56.075Z,2.60
2023-04-21T20:11:23.285Z,2.22
2023-04-21T20:13:50.522Z,3.17
2023-04-21T20:16:20.871Z,2.88
2023-04-21T20:18:48.967Z,2.17
2023-04-21T20:21:15.585Z,3.17
2023-04-21T20:23:42.161Z,2.58
2023-04-21T20:26:08.798Z,3.00
2023-04-21T20:28:36.089Z,2.35
2023-04-21T20:31:02.899Z,2.17
2023-04-21T20:33:30.268Z,3.50
2023-04-21T20:35:57.248Z,3.08
2023-04-21T20:38:24.055Z,2.05
2023-04-21T20:40:52.474Z,3.22
2023-04-21T20:43:19.320Z,4.15
2023-04-21T20:45:47.734Z,2.15
2023-04-21T20:48:14.373Z,2.15
2023-04-21T20:50:42.262Z,2.42
2023-04-21T20:53:10.087Z,2.20
2023-04-21T20:55:36.929Z,6.32
2023-04-21T20:58:04.701Z,6.47
2023-04-21T21:00:33.046Z,7.38
2023-04-21T21:03:00.386Z,3.08
2023-04-21T21:05:33.390Z,2.22
2023-04-21T21:08:00.067Z,3.45
2023-04-21T21:10:26.892Z,2.38
2023-04-21T21:12:53.642Z,2.95
2023-04-21T21:15:20.228Z,3.13
2023-04-21T21:17:46.942Z,2.53
2023-04-21T21:20:13.561Z,2.97
2023-04-21T21:22:40.207Z,6.35
2023-04-21T21:25:07.176Z,5.72
2023-04-21T21:27:34.164Z,6.45
2023-04-21T21:30:00.889Z,7.38
2023-04-21T21:32:27.576Z,5.82
2023-04-21T21:34:54.192Z,2.83
2023-04-21T21:37:21.340Z,3.75
2023-04-21T21:39:48.354Z,3.33
2023-04-21T21:42:15.099Z,2.95
2023-04-21T21:44:41.715Z,2.72
2023-04-21T21:47:08.348Z,2.80
2023-04-21T21:49:35.052Z,3.20
2023-04-21T21:52:02.600Z,3.20
2023-04-21T21:54:29.276Z,3.97
2023-04-21T21:56:56.344Z,3.10
2023-04-21T21:59:23.158Z,3.60
2023-04-21T22:01:51.167Z,3.38
2023-04-21T22:04:18.050Z,4.13
2023-04-21T22:06:45.532Z,2.95
2023-04-21T22:09:12.206Z,4.18
2023-04-21T22:11:38.787Z,3.17
2023-04-21T22:14:18.529Z,2.92
2023-04-21T22:16:50.821Z,2.97
2023-04-21T22:19:19.254Z,3.40
2023-04-21T22:21:46.050Z,3.65
2023-04-21T22:24:13.018Z,3.35
2023-04-21T22:26:39.784Z,3.20
2023-04-21T22:29:07.096Z,3.30
2023-04-21T22:31:33.889Z,3.50
2023-04-21T22:34:00.742Z,3.30
2023-04-21T22:36:27.401Z,2.70
2023-04-21T22:38:54.044Z,3.28
2023-04-21T22:41:21.223Z,3.05
2023-04-21T22:43:47.943Z,3.03
2023-04-21T22:46:14.970Z,3.22
2023-04-21T22:48:41.826Z,2.80
2023-04-21T22:51:08.558Z,2.90
2023-04-21T22:53:35.501Z,3.60
2023-04-21T22:56:02.504Z,2.95
2023-04-21T22:58:29.220Z,3.03
2023-04-21T23:01:39.359Z,3.17
2023-04-21T23:04:06.187Z,2.78
2023-04-21T23:06:33.345Z,2.72
2023-04-21T23:09:00.175Z,3.88
2023-04-21T23:11:26.896Z,2.75
2023-04-21T23:13:54.035Z,2.70
2023-04-21T23:16:20.844Z,3.53
2023-04-21T23:18:47.528Z,2.95
2023-04-21T23:21:14.442Z,3.05
2023-04-21T23:23:41.078Z,3.90
2023-04-21T23:26:07.710Z,2.65
2023-04-21T23:28:34.343Z,3.50
2023-04-21T23:31:01.047Z,2.83
2023-04-21T23:33:27.732Z,2.95
2023-04-21T23:35:57.344Z,3.28
2023-04-21T23:38:23.997Z,3.15
2023-04-21T23:40:50.608Z,4.15
2023-04-21T23:43:17.204Z,3.13
2023-04-21T23:45:43.875Z,3.10
2023-04-21T23:48:10.489Z,3.70
2023-04-21T23:50:37.372Z,3.72
2023-04-21T23:53:04.100Z,3.72
2023-04-21T23:55:30.824Z,3.60
2023-04-21T23:57:58.188Z,2.75
